createdAt,value
2023-02-19T00:00:03.591Z,27.73
2023-02-19T00:01:04.666Z,27.70
2023-02-19T00:02:04.707Z,27.61
2023-02-19T00:03:04.784Z,27.69
2023-02-19T00:04:04.826Z,27.73
2023-02-19T00:05:04.906Z,27.62
2023-02-19T00:06:04.956Z,27.70
2023-02-19T00:07:05.003Z,27.77
2023-02-19T00:08:05.083Z,27.76
2023-02-19T00:09:04.119Z,27.62
2023-02-19T00:10:04.169Z,27.73
2023-02-19T00:11:04.243Z,27.65
2023-02-19T00:12:05.319Z,27.79
2023-02-19T00:13:05.339Z,27.75
2023-02-19T00:14:05.383Z,27.75
2023-02-19T00:15:05.450Z,27.76
2023-02-19T00:16:05.666Z,27.64
2023-02-19T00:17:05.562Z,27.76
2023-02-19T00:18:04.611Z,27.65
2023-02-19T00:19:04.698Z,27.74
2023-02-19T00:20:04.733Z,27.69
2023-02-19T00:21:05.795Z,27.73
2023-02-19T00:22:05.861Z,27.66
2023-02-19T00:23:05.917Z,27.76
2023-02-19T00:24:05.965Z,27.71
2023-02-19T00:25:05.026Z,27.82
2023-02-19T00:26:17.688Z,27.74
2023-02-19T00:27:06.079Z,27.69
2023-02-19T00:28:05.204Z,27.73
2023-02-19T00:29:06.063Z,27.72
2023-02-19T00:30:06.128Z,27.74
2023-02-19T00:31:06.178Z,27.64
2023-02-19T00:32:06.116Z,27.70
2023-02-19T00:33:05.058Z,27.71
2023-02-19T00:34:05.069Z,27.69
2023-02-19T00:35:06.031Z,27.66
2023-02-19T00:36:06.018Z,27.59
2023-02-19T00:37:05.015Z,27.74
2023-02-19T00:38:05.999Z,27.77
2023-02-19T00:39:05.996Z,27.65
2023-02-19T00:40:04.996Z,27.76
2023-02-19T00:41:05.981Z,27.74
2023-02-19T00:42:05.980Z,27.78
2023-02-19T00:43:05.956Z,27.71
2023-02-19T00:44:04.992Z,27.69
2023-02-19T00:45:04.954Z,27.62
2023-02-19T00:46:06.003Z,27.60
2023-02-19T00:47:05.936Z,27.74
2023-02-19T00:48:04.944Z,27.70
2023-02-19T00:49:05.940Z,27.66
2023-02-19T00:50:05.961Z,27.74
2023-02-19T00:51:06.014Z,27.78
2023-02-19T00:52:06.089Z,27.71
2023-02-19T00:53:06.137Z,27.73
2023-02-19T00:54:06.220Z,27.52
2023-02-19T00:55:05.339Z,27.67
2023-02-19T00:56:06.332Z,27.63
2023-02-19T00:57:06.421Z,27.84
2023-02-19T00:58:06.461Z,27.71
2023-02-19T00:59:05.535Z,27.73
2023-02-19T01:00:06.609Z,27.60
2023-02-19T01:01:06.650Z,27.69
2023-02-19T01:02:05.712Z,27.70
2023-02-19T01:03:06.773Z,27.52
2023-02-19T01:04:07.102Z,27.63
2023-02-19T01:05:06.893Z,27.78
2023-02-19T01:06:05.990Z,27.71
2023-02-19T01:07:09.067Z,27.70
2023-02-19T01:08:07.024Z,27.58
2023-02-19T01:09:06.003Z,27.74
2023-02-19T01:10:07.009Z,27.66
2023-02-19T01:11:07.031Z,27.75
2023-02-19T01:12:07.024Z,27.67
2023-02-19T01:13:06.982Z,27.67
2023-02-19T01:14:07.499Z,27.87
2023-02-19T01:15:06.972Z,27.75
2023-02-19T01:16:07.050Z,27.70
2023-02-19T01:17:06.956Z,27.58
2023-02-19T01:18:06.942Z,27.58
2023-02-19T01:19:05.948Z,27.68
2023-02-19T01:20:06.922Z,27.71
2023-02-19T01:21:05.924Z,27.71
2023-02-19T01:22:06.931Z,27.73
2023-02-19T01:23:06.981Z,27.72
2023-02-19T01:24:07.048Z,27.78
2023-02-19T01:25:07.109Z,27.77
2023-02-19T01:26:07.188Z,27.78
2023-02-19T01:27:07.220Z,27.63
2023-02-19T01:28:06.297Z,27.69
2023-02-19T01:29:07.379Z,27.75
2023-02-19T01:30:06.558Z,27.69
2023-02-19T01:31:07.733Z,27.77
2023-02-19T01:32:07.727Z,27.70
2023-02-19T01:33:07.594Z,27.71
2023-02-19T01:34:06.655Z,27.72
2023-02-19T01:35:07.723Z,27.73
2023-02-19T01:36:07.763Z,27.62
2023-02-19T01:37:07.820Z,27.77
2023-02-19T01:38:07.870Z,27.74
2023-02-19T01:39:07.954Z,27.72
2023-02-19T01:40:07.985Z,27.66
2023-02-19T01:41:07.121Z,27.71
2023-02-19T01:42:08.117Z,27.59
2023-02-19T01:43:07.171Z,27.80
2023-02-19T01:44:08.290Z,27.67
2023-02-19T01:45:08.306Z,27.66
2023-02-19T01:46:07.360Z,27.66
2023-02-19T01:47:08.427Z,27.75
2023-02-19T01:48:08.505Z,27.68
2023-02-19T01:49:08.551Z,27.67
2023-02-19T01:50:08.603Z,27.64
2023-02-19T01:51:09.076Z,27.66
2023-02-19T01:52:07.732Z,27.64
2023-02-19T01:53:08.792Z,27.67
2023-02-19T01:54:08.835Z,27.59
2023-02-19T01:55:08.906Z,27.59
2023-02-19T01:56:08.961Z,27.66
2023-02-19T01:57:09.024Z,27.76
2023-02-19T01:58:09.098Z,27.63
2023-02-19T01:59:08.165Z,27.66
2023-02-19T02:00:09.308Z,27.75
2023-02-19T02:01:09.662Z,27.83
2023-02-19T02:02:08.380Z,27.82
2023-02-19T02:03:09.398Z,27.82
2023-02-19T02:04:09.481Z,27.81
2023-02-19T02:05:09.542Z,27.76
2023-02-19T02:06:08.577Z,27.71
2023-02-19T02:07:08.624Z,27.63
2023-02-19T02:08:08.678Z,27.75
2023-02-19T02:09:09.746Z,27.53
2023-02-19T02:10:08.819Z,27.79
2023-02-19T02:11:10.252Z,27.67
2023-02-19T02:12:08.947Z,27.67
2023-02-19T02:13:09.982Z,27.63
2023-02-19T02:14:09.036Z,27.71
2023-02-19T02:15:10.117Z,27.68
2023-02-19T02:16:10.205Z,27.63
2023-02-19T02:17:10.254Z,27.67
2023-02-19T02:18:10.286Z,27.57
2023-02-19T02:19:09.348Z,27.78
2023-02-19T02:20:10.442Z,27.67
2023-02-19T02:21:10.819Z,27.71
2023-02-19T02:22:10.517Z,27.78
2023-02-19T02:23:10.578Z,27.64
2023-02-19T02:24:10.645Z,27.74
2023-02-19T02:25:10.696Z,27.78
2023-02-19T02:26:10.767Z,27.74
2023-02-19T02:27:10.834Z,27.74
2023-02-19T02:28:10.891Z,27.65
2023-02-19T02:29:10.943Z,27.66
2023-02-19T02:30:11.100Z,27.65
2023-02-19T02:31:11.507Z,27.69
2023-02-19T02:32:10.163Z,27.55
2023-02-19T02:33:10.194Z,27.57
2023-02-19T02:34:11.265Z,27.74
2023-02-19T02:35:10.330Z,27.75
2023-02-19T02:36:11.400Z,27.68
2023-02-19T02:37:11.442Z,27.64
2023-02-19T02:38:10.493Z,27.66
2023-02-19T02:39:11.570Z,27.63
2023-02-19T02:40:10.710Z,27.86
2023-02-19T02:41:12.096Z,27.61
2023-02-19T02:42:11.742Z,27.74
2023-02-19T02:43:11.820Z,27.75
2023-02-19T02:44:10.878Z,27.64
2023-02-19T02:45:10.953Z,27.69
2023-02-19T02:46:11.989Z,27.71
2023-02-19T02:47:11.058Z,27.63
2023-02-19T02:48:11.116Z,27.60
2023-02-19T02:49:12.182Z,27.78
2023-02-19T02:50:12.239Z,27.61
2023-02-19T02:51:12.605Z,27.72
2023-02-19T02:52:12.359Z,27.59
2023-02-19T02:53:12.431Z,27.71
2023-02-19T02:54:12.491Z,27.50
2023-02-19T02:55:11.548Z,27.79
2023-02-19T02:56:12.701Z,27.64
2023-02-19T02:57:12.705Z,27.64
2023-02-19T02:58:12.751Z,27.55
2023-02-19T02:59:12.810Z,27.52
2023-02-19T03:00:12.874Z,27.79
2023-02-19T03:01:12.334Z,27.68
2023-02-19T03:02:13.035Z,27.79
2023-02-19T03:03:13.269Z,27.75
2023-02-19T03:04:13.121Z,27.74
2023-02-19T03:05:12.182Z,27.79
2023-02-19T03:06:12.229Z,27.81
2023-02-19T03:07:13.304Z,27.75
2023-02-19T03:08:12.358Z,27.78
2023-02-19T03:09:13.435Z,27.75
2023-02-19T03:10:13.484Z,27.67
2023-02-19T03:11:12.533Z,27.76
2023-02-19T03:12:13.621Z,27.67
2023-02-19T03:13:13.657Z,27.79
2023-02-19T03:14:12.726Z,27.74
2023-02-19T03:15:13.778Z,27.64
2023-02-19T03:16:13.042Z,27.82
2023-02-19T03:17:12.888Z,27.71
2023-02-19T03:18:13.937Z,27.83
2023-02-19T03:19:13.980Z,27.79
2023-02-19T03:20:14.043Z,27.82
2023-02-19T03:21:14.077Z,27.75
2023-02-19T03:22:14.152Z,27.76
2023-02-19T03:23:14.177Z,27.80
2023-02-19T03:24:14.238Z,27.69
2023-02-19T03:25:13.293Z,27.61
2023-02-19T03:26:14.325Z,27.71
2023-02-19T03:27:14.370Z,27.76
2023-02-19T03:28:13.403Z,27.71
2023-02-19T03:29:14.465Z,27.76
2023-02-19T03:30:13.566Z,27.61
2023-02-19T03:31:13.864Z,27.71
2023-02-19T03:32:14.708Z,27.69
2023-02-19T03:33:14.638Z,27.83
2023-02-19T03:34:14.688Z,27.72
2023-02-19T03:35:14.746Z,27.79
2023-02-19T03:36:13.795Z,27.74
2023-02-19T03:37:13.836Z,27.75
2023-02-19T03:38:14.886Z,27.69
2023-02-19T03:39:14.923Z,27.64
2023-02-19T03:40:14.980Z,27.61
2023-02-19T03:41:15.012Z,27.71
2023-02-19T03:42:14.088Z,27.72
2023-02-19T03:43:15.125Z,27.64
2023-02-19T03:44:15.195Z,27.80
2023-02-19T03:45:15.219Z,27.78
2023-02-19T03:46:15.285Z,27.71
2023-02-19T03:47:15.340Z,27.72
2023-02-19T03:48:14.370Z,27.67
2023-02-19T03:49:14.420Z,27.83
2023-02-19T03:50:15.480Z,27.67
2023-02-19T03:51:15.518Z,27.76
2023-02-19T03:52:15.572Z,27.78
2023-02-19T03:53:14.617Z,27.78
2023-02-19T03:54:14.660Z,27.78
2023-02-19T03:55:15.712Z,27.80
2023-02-19T03:56:15.739Z,27.85
2023-02-19T03:57:15.790Z,27.74
2023-02-19T03:58:15.824Z,27.72
2023-02-19T03:59:14.889Z,27.86
2023-02-19T04:00:15.943Z,27.84
2023-02-19T04:01:15.982Z,27.85
2023-02-19T04:02:15.099Z,27.82
2023-02-19T04:03:16.092Z,27.80
2023-02-19T04:04:15.127Z,27.87
2023-02-19T04:05:15.176Z,27.87
2023-02-19T04:06:16.230Z,27.84
2023-02-19T04:07:16.275Z,27.87
2023-02-19T04:08:16.329Z,27.87
2023-02-19T04:09:16.353Z,27.90
2023-02-19T04:10:16.381Z,27.93
2023-02-19T04:11:16.438Z,27.68
2023-02-19T04:12:16.481Z,27.79
2023-02-19T04:13:16.530Z,27.85
2023-02-19T04:14:15.565Z,27.82
2023-02-19T04:15:15.608Z,27.75
2023-02-19T04:16:16.659Z,27.78
2023-02-19T04:17:16.683Z,27.84
2023-02-19T04:18:16.718Z,27.80
2023-02-19T04:19:16.783Z,27.69
2023-02-19T04:20:16.817Z,27.76
2023-02-19T04:21:15.855Z,27.83
2023-02-19T04:22:15.911Z,27.86
2023-02-19T04:23:16.953Z,27.91
2023-02-19T04:24:16.979Z,27.78
2023-02-19T04:25:17.016Z,27.79
2023-02-19T04:26:16.035Z,27.90
2023-02-19T04:27:17.071Z,27.86
2023-02-19T04:28:17.128Z,27.83
2023-02-19T04:29:17.144Z,27.82
2023-02-19T04:30:16.243Z,27.75
2023-02-19T04:31:17.308Z,27.84
2023-02-19T04:32:16.264Z,27.96
2023-02-19T04:33:16.301Z,27.86
2023-02-19T04:34:16.342Z,27.85
2023-02-19T04:35:17.388Z,27.85
2023-02-19T04:36:17.440Z,27.83
2023-02-19T04:37:17.486Z,27.86
2023-02-19T04:38:17.531Z,27.81
2023-02-19T04:39:17.551Z,27.80
2023-02-19T04:40:16.584Z,27.67
2023-02-19T04:41:17.649Z,27.68
2023-02-19T04:42:17.675Z,27.79
2023-02-19T04:43:17.772Z,27.86
2023-02-19T04:44:17.793Z,27.76
2023-02-19T04:45:17.805Z,27.86
2023-02-19T04:46:16.944Z,27.83
2023-02-19T04:47:17.915Z,27.87
2023-02-19T04:48:17.975Z,27.86
2023-02-19T04:49:18.014Z,27.89
2023-02-19T04:50:18.052Z,27.78
2023-02-19T04:51:18.092Z,27.89
2023-02-19T04:52:18.135Z,27.75
2023-02-19T04:53:17.159Z,27.69
2023-02-19T04:54:18.204Z,27.71
2023-02-19T04:55:17.237Z,27.80
2023-02-19T04:56:18.275Z,27.72
2023-02-19T04:57:18.334Z,27.86
2023-02-19T04:58:17.386Z,27.91
2023-02-19T04:59:18.428Z,27.86
2023-02-19T05:00:18.462Z,27.83
2023-02-19T05:01:18.520Z,27.87
2023-02-19T05:02:18.544Z,27.78
2023-02-19T05:03:18.595Z,27.80
2023-02-19T05:04:18.687Z,27.89
2023-02-19T05:05:18.701Z,27.79
2023-02-19T05:06:18.771Z,27.95
2023-02-19T05:07:17.813Z,27.84
2023-02-19T05:08:18.887Z,27.89
2023-02-19T05:09:18.923Z,27.95
2023-02-19T05:10:17.993Z,27.89
2023-02-19T05:11:19.096Z,27.80
2023-02-19T05:12:18.094Z,27.87
2023-02-19T05:13:19.176Z,27.72
2023-02-19T05:14:19.200Z,27.83
2023-02-19T05:15:19.246Z,27.90
2023-02-19T05:16:19.323Z,27.87
2023-02-19T05:17:18.333Z,27.90
2023-02-19T05:18:19.405Z,27.83
2023-02-19T05:19:19.430Z,27.75
2023-02-19T05:20:19.484Z,27.86
2023-02-19T05:21:19.544Z,27.76
2023-02-19T05:22:19.591Z,27.74
2023-02-19T05:23:19.680Z,27.79
2023-02-19T05:24:19.725Z,27.87
2023-02-19T05:25:19.791Z,27.93
2023-02-19T05:26:19.818Z,27.85
2023-02-19T05:27:19.849Z,27.87
2023-02-19T05:28:20.421Z,27.89
2023-02-19T05:29:18.906Z,27.87
2023-02-19T05:30:19.973Z,27.90
2023-02-19T05:31:20.071Z,27.91
2023-02-19T05:32:20.021Z,27.94
2023-02-19T05:33:20.060Z,27.84
2023-02-19T05:34:19.099Z,27.74
2023-02-19T05:35:20.142Z,27.87
2023-02-19T05:36:20.198Z,27.79
2023-02-19T05:37:20.246Z,27.87
2023-02-19T05:38:20.288Z,27.75
2023-02-19T05:39:20.330Z,27.76
2023-02-19T05:40:20.365Z,27.93
2023-02-19T05:41:20.388Z,27.90
2023-02-19T05:42:19.450Z,27.91
2023-02-19T05:43:20.548Z,27.94
2023-02-19T05:44:20.554Z,27.85
2023-02-19T05:45:20.600Z,27.87
2023-02-19T05:46:20.726Z,27.84
2023-02-19T05:47:19.729Z,27.91
2023-02-19T05:48:19.753Z,27.90
2023-02-19T05:49:20.803Z,27.89
2023-02-19T05:50:20.849Z,27.94
2023-02-19T05:51:20.924Z,27.89
2023-02-19T05:52:20.957Z,27.94
2023-02-19T05:53:20.988Z,27.83
2023-02-19T05:54:21.052Z,27.90
2023-02-19T05:55:21.105Z,27.86
2023-02-19T05:56:21.167Z,27.80
2023-02-19T05:57:21.205Z,27.86
2023-02-19T05:58:21.288Z,27.75
2023-02-19T05:59:21.346Z,27.78
2023-02-19T06:00:21.365Z,27.82
2023-02-19T06:01:20.520Z,27.83
2023-02-19T06:02:21.511Z,27.83
2023-02-19T06:03:20.561Z,27.86
2023-02-19T06:04:21.580Z,27.82
2023-02-19T06:05:20.592Z,27.93
2023-02-19T06:06:21.605Z,27.89
2023-02-19T06:07:21.657Z,27.96
2023-02-19T06:08:21.690Z,27.96
2023-02-19T06:09:21.787Z,27.82
2023-02-19T06:10:21.805Z,27.94
2023-02-19T06:11:21.814Z,27.87
2023-02-19T06:12:20.866Z,27.84
2023-02-19T06:13:21.913Z,27.80
2023-02-19T06:14:20.907Z,27.83
2023-02-19T06:15:21.948Z,27.86
2023-02-19T06:16:22.234Z,27.89
2023-02-19T06:17:22.005Z,27.82
2023-02-19T06:18:21.039Z,27.86
2023-02-19T06:19:21.068Z,27.89
2023-02-19T06:20:22.089Z,27.97
2023-02-19T06:21:21.133Z,27.99
2023-02-19T06:22:22.143Z,27.72
2023-02-19T06:23:22.168Z,27.80
2023-02-19T06:24:21.205Z,27.87
2023-02-19T06:25:22.250Z,27.86
2023-02-19T06:26:22.269Z,27.86
2023-02-19T06:27:22.321Z,27.93
2023-02-19T06:28:21.327Z,27.81
2023-02-19T06:29:21.386Z,27.94
2023-02-19T06:30:22.454Z,27.91
2023-02-19T06:31:22.611Z,27.86
2023-02-19T06:32:22.556Z,27.88
2023-02-19T06:33:22.501Z,27.89
2023-02-19T06:34:22.559Z,27.87
2023-02-19T06:35:21.589Z,27.87
2023-02-19T06:36:22.664Z,27.91
2023-02-19T06:37:22.697Z,27.94
2023-02-19T06:38:22.734Z,27.87
2023-02-19T06:39:21.795Z,27.84
2023-02-19T06:40:22.842Z,27.91
2023-02-19T06:41:22.890Z,27.83
2023-02-19T06:42:21.945Z,28.05
2023-02-19T06:43:23.013Z,27.97
2023-02-19T06:44:22.073Z,27.99
2023-02-19T06:45:23.127Z,27.90
2023-02-19T06:46:23.198Z,27.95
2023-02-19T06:47:25.428Z,27.98
2023-02-19T06:48:23.243Z,27.86
2023-02-19T06:49:23.226Z,27.93
2023-02-19T06:50:23.221Z,27.87
2023-02-19T06:51:23.217Z,27.91
2023-02-19T06:52:23.219Z,27.90
2023-02-19T06:53:23.212Z,27.87
2023-02-19T06:54:23.203Z,28.02
2023-02-19T06:55:23.199Z,27.84
2023-02-19T06:56:23.191Z,27.89
2023-02-19T06:57:22.183Z,27.83
2023-02-19T06:58:22.172Z,27.91
2023-02-19T06:59:23.162Z,27.90
2023-02-19T07:00:23.157Z,27.93
2023-02-19T07:01:23.151Z,27.86
2023-02-19T07:02:22.143Z,27.90
2023-02-19T07:03:23.154Z,27.90
2023-02-19T07:04:22.156Z,27.93
2023-02-19T07:05:23.137Z,27.83
2023-02-19T07:06:23.130Z,27.96
2023-02-19T07:07:23.103Z,27.91
2023-02-19T07:08:22.086Z,27.87
2023-02-19T07:09:23.096Z,27.94
2023-02-19T07:10:22.078Z,27.86
2023-02-19T07:11:23.059Z,27.89
2023-02-19T07:12:23.079Z,27.86
2023-02-19T07:13:23.057Z,27.98
2023-02-19T07:14:23.141Z,27.91
2023-02-19T07:15:23.479Z,27.89
2023-02-19T07:16:23.276Z,27.97
2023-02-19T07:17:22.274Z,27.86
2023-02-19T07:18:23.331Z,27.91
2023-02-19T07:19:22.379Z,27.95
2023-02-19T07:20:23.397Z,27.99
2023-02-19T07:21:22.458Z,27.91
2023-02-19T07:22:22.500Z,27.94
2023-02-19T07:23:23.558Z,27.90
2023-02-19T07:24:23.607Z,27.84
2023-02-19T07:25:22.654Z,27.91
2023-02-19T07:26:23.686Z,27.84
2023-02-19T07:27:22.735Z,27.83
2023-02-19T07:28:22.793Z,27.78
2023-02-19T07:29:23.852Z,27.93
2023-02-19T07:30:23.930Z,27.96
2023-02-19T07:31:24.155Z,27.94
2023-02-19T07:32:24.018Z,27.90
2023-02-19T07:33:23.060Z,27.97
2023-02-19T07:34:24.129Z,28.03
2023-02-19T07:35:23.178Z,27.90
2023-02-19T07:36:24.222Z,27.87
2023-02-19T07:37:24.303Z,27.89
2023-02-19T07:38:24.352Z,27.91
2023-02-19T07:39:24.408Z,27.87
2023-02-19T07:40:24.467Z,27.94
2023-02-19T07:41:23.527Z,27.91
2023-02-19T07:42:24.575Z,27.95
2023-02-19T07:43:23.646Z,28.00
2023-02-19T07:44:23.705Z,27.81
2023-02-19T07:45:23.826Z,28.01
2023-02-19T07:46:24.812Z,27.89
2023-02-19T07:47:23.875Z,27.90
2023-02-19T07:48:24.926Z,27.81
2023-02-19T07:49:24.028Z,27.94
2023-02-19T07:50:25.047Z,27.82
2023-02-19T07:51:25.127Z,27.86
2023-02-19T07:52:25.176Z,27.90
2023-02-19T07:53:25.234Z,27.90
2023-02-19T07:54:25.295Z,27.82
2023-02-19T07:55:24.323Z,27.84
2023-02-19T07:56:24.367Z,27.90
2023-02-19T07:57:25.420Z,27.91
2023-02-19T07:58:25.500Z,27.93
2023-02-19T07:59:25.528Z,27.89
2023-02-19T08:00:24.582Z,27.87
2023-02-19T08:01:25.704Z,27.97
2023-02-19T08:02:25.702Z,27.93
2023-02-19T08:03:25.821Z,27.96
2023-02-19T08:04:25.797Z,27.94
2023-02-19T08:05:25.845Z,27.76
2023-02-19T08:06:24.896Z,27.89
2023-02-19T08:07:24.932Z,27.84
2023-02-19T08:08:25.988Z,27.89
2023-02-19T08:09:26.027Z,27.94
2023-02-19T08:10:25.081Z,27.87
2023-02-19T08:11:26.209Z,27.86
2023-02-19T08:12:26.189Z,27.85
2023-02-19T08:13:26.249Z,27.89
2023-02-19T08:14:26.315Z,27.93
2023-02-19T08:15:26.360Z,27.82
2023-02-19T08:16:40.797Z,27.94
2023-02-19T08:17:26.531Z,27.91
2023-02-19T08:18:26.406Z,27.89
2023-02-19T08:19:26.402Z,27.78
2023-02-19T08:20:26.436Z,27.80
2023-02-19T08:21:26.394Z,27.81
2023-02-19T08:22:26.387Z,27.87
2023-02-19T08:23:25.366Z,27.94
2023-02-19T08:24:25.359Z,27.91
2023-02-19T08:25:26.360Z,27.86
2023-02-19T08:26:26.388Z,27.85
2023-02-19T08:27:25.461Z,27.94
2023-02-19T08:28:26.517Z,27.94
2023-02-19T08:29:26.592Z,27.93
2023-02-19T08:30:25.765Z,27.92
2023-02-19T08:31:26.859Z,27.97
2023-02-19T08:32:26.760Z,27.90
2023-02-19T08:33:26.848Z,27.93
2023-02-19T08:34:26.877Z,27.94
2023-02-19T08:35:26.976Z,27.90
2023-02-19T08:36:27.020Z,27.94
2023-02-19T08:37:26.061Z,27.93
2023-02-19T08:38:26.124Z,27.89
2023-02-19T08:39:27.187Z,27.90
2023-02-19T08:40:26.273Z,27.89
2023-02-19T08:41:27.361Z,27.92
2023-02-19T08:42:27.356Z,27.86
2023-02-19T08:43:26.423Z,27.89
2023-02-19T08:44:27.485Z,27.90
2023-02-19T08:45:26.559Z,27.87
2023-02-19T08:46:27.617Z,27.89
2023-02-19T08:47:26.682Z,27.93
2023-02-19T08:48:26.740Z,27.92
2023-02-19T08:49:26.807Z,27.89
2023-02-19T08:50:27.874Z,27.93
2023-02-19T08:51:27.917Z,27.96
2023-02-19T08:52:26.983Z,27.87
2023-02-19T08:53:28.047Z,27.84
2023-02-19T08:54:28.105Z,27.93
2023-02-19T08:55:27.167Z,27.94
2023-02-19T08:56:27.231Z,27.97
2023-02-19T08:57:28.268Z,28.00
2023-02-19T08:58:28.330Z,27.92
2023-02-19T08:59:27.387Z,27.89
2023-02-19T09:00:28.462Z,27.94
2023-02-19T09:01:27.553Z,27.97
2023-02-19T09:02:28.572Z,27.93
2023-02-19T09:03:28.659Z,27.95
2023-02-19T09:04:28.801Z,28.00
2023-02-19T09:05:28.758Z,27.96
2023-02-19T09:06:28.851Z,27.94
2023-02-19T09:07:28.877Z,28.06
2023-02-19T09:08:28.953Z,27.99
2023-02-19T09:09:29.033Z,27.94
2023-02-19T09:10:29.077Z,28.03
2023-02-19T09:11:29.179Z,27.93
2023-02-19T09:12:29.209Z,27.95
2023-02-19T09:13:28.286Z,27.88
2023-02-19T09:14:29.327Z,27.99
2023-02-19T09:15:29.449Z,27.96
2023-02-19T09:16:28.443Z,27.98
2023-02-19T09:17:29.515Z,27.93
2023-02-19T09:18:29.590Z,28.00
2023-02-19T09:19:29.633Z,27.92
2023-02-19T09:20:30.307Z,27.97
2023-02-19T09:21:28.758Z,27.93
2023-02-19T09:22:29.827Z,27.99
2023-02-19T09:23:29.887Z,27.89
2023-02-19T09:24:28.942Z,27.96
2023-02-19T09:25:29.019Z,27.87
2023-02-19T09:26:30.070Z,27.92
2023-02-19T09:27:30.136Z,27.96
2023-02-19T09:28:30.206Z,27.92
2023-02-19T09:29:29.256Z,27.98
2023-02-19T09:30:30.347Z,27.92
2023-02-19T09:31:30.503Z,27.96
2023-02-19T09:32:30.436Z,27.96
2023-02-19T09:33:30.485Z,27.92
2023-02-19T09:34:30.674Z,27.95
2023-02-19T09:35:30.603Z,27.91
2023-02-19T09:36:30.664Z,27.93
2023-02-19T09:37:32.059Z,27.94
2023-02-19T09:38:29.733Z,27.98
2023-02-19T09:39:29.711Z,28.01
2023-02-19T09:40:30.699Z,27.96
2023-02-19T09:41:30.697Z,27.87
2023-02-19T09:42:30.683Z,27.88
2023-02-19T09:43:30.678Z,27.88
2023-02-19T09:44:29.655Z,27.97
2023-02-19T09:45:30.662Z,27.94
2023-02-19T09:46:30.709Z,27.91
2023-02-19T09:47:29.644Z,27.97
2023-02-19T09:48:29.638Z,27.88
2023-02-19T09:49:29.630Z,27.86
2023-02-19T09:50:29.624Z,27.91
2023-02-19T09:51:30.685Z,27.94
2023-02-19T09:52:29.612Z,27.93
2023-02-19T09:53:30.606Z,27.94
2023-02-19T09:54:30.635Z,27.91
2023-02-19T09:55:30.592Z,28.00
2023-02-19T09:56:30.573Z,27.90
2023-02-19T09:57:29.578Z,27.96
2023-02-19T09:58:30.567Z,27.98
2023-02-19T09:59:30.546Z,27.86
2023-02-19T10:00:30.548Z,27.90
2023-02-19T10:01:29.590Z,28.04
2023-02-19T10:02:29.584Z,27.91
2023-02-19T10:03:29.677Z,27.94
2023-02-19T10:04:30.689Z,27.96
2023-02-19T10:05:30.742Z,27.90
2023-02-19T10:06:30.798Z,27.95
2023-02-19T10:07:30.840Z,27.93
2023-02-19T10:08:30.885Z,27.94
2023-02-19T10:09:30.956Z,27.89
2023-02-19T10:10:30.995Z,27.88
2023-02-19T10:11:30.051Z,27.94
2023-02-19T10:12:31.079Z,27.96
2023-02-19T10:13:30.115Z,27.91
2023-02-19T10:14:31.165Z,27.86
2023-02-19T10:15:31.209Z,27.92
2023-02-19T10:16:30.244Z,27.86
2023-02-19T10:17:31.310Z,27.92
2023-02-19T10:18:30.327Z,27.95
2023-02-19T10:19:31.379Z,27.97
2023-02-19T10:20:30.423Z,27.91
2023-02-19T10:21:31.485Z,27.92
2023-02-19T10:22:31.518Z,27.92
2023-02-19T10:23:31.559Z,27.93
2023-02-19T10:24:31.595Z,27.95
2023-02-19T10:25:31.646Z,27.99
2023-02-19T10:26:31.686Z,27.92
2023-02-19T10:27:31.743Z,27.87
2023-02-19T10:28:30.765Z,27.91
2023-02-19T10:29:31.812Z,27.93
2023-02-19T10:30:31.938Z,27.92
2023-02-19T10:31:31.978Z,27.92
2023-02-19T10:32:31.930Z,27.95
2023-02-19T10:33:30.952Z,27.94
2023-02-19T10:34:30.998Z,27.92
2023-02-19T10:35:31.030Z,27.93
2023-02-19T10:36:32.535Z,27.91
2023-02-19T10:37:32.114Z,27.95
2023-02-19T10:38:31.157Z,27.92
2023-02-19T10:39:32.183Z,27.93
2023-02-19T10:40:32.227Z,27.94
2023-02-19T10:41:32.263Z,27.94
2023-02-19T10:42:32.305Z,27.93
2023-02-19T10:43:32.320Z,27.94
2023-02-19T10:44:31.389Z,27.95
2023-02-19T10:45:32.399Z,27.94
2023-02-19T10:46:31.442Z,27.97
2023-02-19T10:47:32.468Z,27.97
2023-02-19T10:48:31.501Z,27.91
2023-02-19T10:49:32.536Z,27.94
2023-02-19T10:50:31.628Z,27.91
2023-02-19T10:51:31.610Z,27.95
2023-02-19T10:52:31.643Z,28.02
2023-02-19T10:53:32.682Z,28.01
2023-02-19T10:54:32.709Z,27.99
2023-02-19T10:55:32.731Z,27.95
2023-02-19T10:56:32.766Z,27.96
2023-02-19T10:57:32.861Z,27.96
2023-02-19T10:58:32.826Z,27.97
2023-02-19T10:59:32.864Z,27.96
2023-02-19T11:00:31.888Z,28.00
2023-02-19T11:01:32.945Z,27.97
2023-02-19T11:02:32.976Z,28.01
2023-02-19T11:03:32.988Z,27.96
2023-02-19T11:04:33.047Z,27.98
2023-02-19T11:05:33.037Z,27.94
2023-02-19T11:06:35.008Z,27.97
2023-02-19T11:07:32.060Z,28.01
2023-02-19T11:08:32.056Z,27.96
2023-02-19T11:09:32.054Z,28.00
2023-02-19T11:10:33.040Z,27.96
2023-02-19T11:11:33.056Z,27.97
2023-02-19T11:12:33.026Z,27.93
2023-02-19T11:13:33.032Z,28.00
2023-02-19T11:14:32.009Z,28.04
2023-02-19T11:15:33.052Z,27.97
2023-02-19T11:16:33.012Z,28.03
2023-02-19T11:17:32.992Z,27.98
2023-02-19T11:18:32.034Z,27.96
2023-02-19T11:19:32.009Z,27.99
2023-02-19T11:20:32.979Z,27.97
2023-02-19T11:21:32.997Z,27.96
2023-02-19T11:22:32.985Z,28.02
2023-02-19T11:23:32.953Z,27.97
2023-02-19T11:24:31.958Z,27.94
2023-02-19T11:25:31.956Z,27.96
2023-02-19T11:26:32.942Z,28.00
2023-02-19T11:27:32.923Z,27.97
2023-02-19T11:28:32.931Z,28.04
2023-02-19T11:29:32.921Z,28.04
2023-02-19T11:30:35.784Z,27.97
2023-02-19T11:31:32.135Z,27.95
2023-02-19T11:32:31.895Z,28.04
2023-02-19T11:33:31.896Z,28.00
2023-02-19T11:34:32.872Z,28.00
2023-02-19T11:35:32.875Z,28.02
2023-02-19T11:36:32.854Z,27.92
2023-02-19T11:37:32.869Z,28.00
2023-02-19T11:38:31.856Z,28.03
2023-02-19T11:39:32.845Z,28.00
2023-02-19T11:40:32.905Z,28.08
2023-02-19T11:41:31.849Z,27.95
2023-02-19T11:42:31.837Z,28.00
2023-02-19T11:43:32.833Z,28.03
2023-02-19T11:44:32.804Z,28.03
2023-02-19T11:45:32.811Z,28.00
2023-02-19T11:46:32.877Z,27.96
2023-02-19T11:47:31.793Z,27.99
2023-02-19T11:48:32.831Z,27.99
2023-02-19T11:49:32.774Z,27.99
2023-02-19T11:50:32.781Z,28.00
2023-02-19T11:51:32.778Z,27.93
2023-02-19T11:52:32.768Z,28.00
2023-02-19T11:53:31.741Z,27.96
2023-02-19T11:54:32.737Z,28.02
2023-02-19T11:55:32.723Z,27.97
2023-02-19T11:56:32.719Z,28.00
2023-02-19T11:57:31.711Z,28.00
2023-02-19T11:58:32.715Z,27.96
2023-02-19T11:59:32.720Z,28.00
2023-02-19T12:00:32.719Z,27.97
2023-02-19T12:01:32.698Z,27.99
2023-02-19T12:02:32.682Z,27.92
2023-02-19T12:03:32.675Z,27.99
2023-02-19T12:04:32.677Z,28.02
2023-02-19T12:05:32.661Z,27.97
2023-02-19T12:06:32.655Z,28.00
2023-02-19T12:07:32.668Z,27.92
2023-02-19T12:08:31.703Z,28.00
2023-02-19T12:09:32.740Z,27.93
2023-02-19T12:10:32.754Z,27.91
2023-02-19T12:11:31.773Z,28.00
2023-02-19T12:12:31.805Z,27.97
2023-02-19T12:13:32.857Z,28.02
2023-02-19T12:14:31.862Z,27.97
2023-02-19T12:15:32.886Z,27.98
2023-02-19T12:16:32.953Z,27.99
2023-02-19T12:17:32.943Z,27.99
2023-02-19T12:18:33.320Z,28.02
2023-02-19T12:19:31.985Z,28.00
2023-02-19T12:20:33.008Z,27.98
2023-02-19T12:21:33.019Z,27.98
2023-02-19T12:22:33.071Z,27.91
2023-02-19T12:23:33.081Z,27.99
2023-02-19T12:24:33.112Z,27.91
2023-02-19T12:25:34.522Z,27.99
2023-02-19T12:26:32.432Z,28.02
2023-02-19T12:27:33.418Z,27.97
2023-02-19T12:28:32.448Z,27.99
2023-02-19T12:29:33.495Z,28.02
2023-02-19T12:30:33.793Z,27.92
2023-02-19T12:31:33.561Z,27.93
2023-02-19T12:32:32.571Z,27.91
2023-02-19T12:33:33.600Z,27.96
2023-02-19T12:34:33.635Z,27.95
2023-02-19T12:35:33.657Z,27.93
2023-02-19T12:36:33.753Z,27.96
2023-02-19T12:37:33.713Z,27.89
2023-02-19T12:38:33.736Z,27.91
2023-02-19T12:39:32.779Z,28.00
2023-02-19T12:40:32.791Z,28.05
2023-02-19T12:41:33.843Z,28.03
2023-02-19T12:42:33.871Z,27.97
2023-02-19T12:43:32.900Z,27.99
2023-02-19T12:44:33.920Z,27.96
2023-02-19T12:45:34.009Z,27.87
2023-02-19T12:46:32.981Z,27.98
2023-02-19T12:47:33.994Z,27.93
2023-02-19T12:48:34.062Z,27.87
2023-02-19T12:49:34.082Z,27.99
2023-02-19T12:50:34.076Z,27.91
2023-02-19T12:51:33.098Z,27.99
2023-02-19T12:52:33.137Z,27.99